Davenport, IA

11:11 AM CDT on August 31, 2016 (GMT -0500)
Southeast Davenport | | Change Station

Elev 659 ft 41.54 °N, 90.56 °W | Updated 1 minute ago

Mostly Cloudy
Mostly Cloudy
81.5 °F
Feels Like 88 °F
N
0.7
Wind Variable Wind from SE
Gusts 2.0 mph

Today
High -- | Low -- °F
--% Chance of Precip.
Yesterday
High -- | Low -- °F
Precip. -- in
Pressure 30.13 in
Visibility 10.0 miles
Clouds Mostly Cloudy 1500 ft
Heat Index 88 °F
Dew Point 75 °F
Humidity 80%
Rainfall 0.00 in
Snow Depth Not available.
6:27 AM 7:36 PM
Waning Crescent, 1% visible
SPECI KDVN 311559Z AUTO VRB05KT 10SM BKN015 23/19 A3013 RMK AO2 T02330189
Pressure 30.13 in
Visibility 10.0 miles
Clouds Mostly Cloudy 1500 ft
Heat Index 88 °F
Dew Point 75 °F
Humidity 80%
Rainfall 0.00 in
Snow Depth Not available.
6:27 AM 7:36 PM
Waning Crescent, 1% visible
SPECI KDVN 311559Z AUTO VRB05KT 10SM BKN015 23/19 A3013 RMK AO2 T02330189

10-Day Weather Forecast

Almanac

Astronomy

Aug. 31, 2016 Rise Set
Actual Time
Civil Twilight
Nautical Twilight
Astronomical Twilight
Moon
Length of Visible Light
Length of Day
Tomorrow will be .
, % of the Moon is Illuminated

Today's Extremes

State Highs State Lows

Community

WunderPhotos

Upload Photos

1,936,105 photos uploaded!

WunderBlog® & News

Nearby

Air Quality

  Air Quality AQ Index Pollutant
Not available.

Snow Depth

Station Depth Elevation

Earthquake Activity

City Distance Mag. Time & Date
Minimum magnitude displayed is 2.5.

Coastal Water Temperatures

Place Temperature

Stations

Nearby Weather Stations

Station Location Temp. Windchill Dew Point Humidity Wind Precip. Elev Updated Type
                   

Watches & Warnings

There are currently no watches in effect.